Map

Track Data

SID SEASON NUMBER BASIN SUBBASIN NAME ISO_TIME NATURE LAT LON WMO_WIND WMO_PRES WMO_AGENCY TRACK_TYPE DIST2LAND LANDFALL IFLAG USA_AGENCY USA_ATCF_ID USA_LAT USA_LON USA_RECORD USA_STATUS USA_WIND USA_PRES USA_SSHS USA_R34_NE USA_R34_SE USA_R34_SW USA_R34_NW USA_R50_NE USA_R50_SE USA_R50_SW USA_R50_NW USA_R64_NE USA_R64_SE USA_R64_SW USA_R64_NW USA_POCI USA_ROCI USA_RMW USA_EYE TOKYO_LAT TOKYO_LON TOKYO_GRADE TOKYO_WIND TOKYO_PRES TOKYO_R50_DIR TOKYO_R50_LONG TOKYO_R50_SHORT TOKYO_R30_DIR TOKYO_R30_LONG TOKYO_R30_SHORT TOKYO_LAND CMA_LAT CMA_LON CMA_CAT CMA_WIND CMA_PRES HKO_LAT HKO_LON HKO_CAT HKO_WIND HKO_PRES NEWDELHI_LAT NEWDELHI_LON NEWDELHI_GRADE NEWDELHI_WIND NEWDELHI_PRES NEWDELHI_CI NEWDELHI_DP NEWDELHI_POCI REUNION_LAT REUNION_LON REUNION_TYPE REUNION_WIND REUNION_PRES REUNION_TNUM REUNION_CI REUNION_RMW REUNION_R34_NE REUNION_R34_SE REUNION_R34_SW REUNION_R34_NW REUNION_R50_NE REUNION_R50_SE REUNION_R50_SW REUNION_R50_NW REUNION_R64_NE REUNION_R64_SE REUNION_R64_SW REUNION_R64_NW BOM_LAT BOM_LON BOM_TYPE BOM_WIND BOM_PRES BOM_TNUM BOM_CI BOM_RMW BOM_R34_NE BOM_R34_SE BOM_R34_SW BOM_R34_NW BOM_R50_NE BOM_R50_SE BOM_R50_SW BOM_R50_NW BOM_R64_NE BOM_R64_SE BOM_R64_SW BOM_R64_NW BOM_ROCI BOM_POCI BOM_EYE BOM_POS_METHOD BOM_PRES_METHOD NADI_LAT NADI_LON NADI_CAT NADI_WIND NADI_PRES WELLINGTON_LAT WELLINGTON_LON WELLINGTON_WIND WELLINGTON_PRES DS824_LAT DS824_LON DS824_STAGE DS824_WIND DS824_PRES TD9636_LAT TD9636_LON TD9636_STAGE TD9636_WIND TD9636_PRES TD9635_LAT TD9635_LON TD9635_WIND TD9635_PRES TD9635_ROCI NEUMANN_LAT NEUMANN_LON NEUMANN_CLASS NEUMANN_WIND NEUMANN_PRES MLC_LAT MLC_LON MLC_CLASS MLC_WIND MLC_PRES USA_GUST BOM_GUST BOM_GUST_PER REUNION_GUST REUNION_GUST_PER USA_SEAHGT USA_SEARAD_NE USA_SEARAD_SE USA_SEARAD_SW USA_SEARAD_NW STORM_SPEED STORM_DIR
1983324S08073 1984 85 SI MM NOT_NAMED 1983-11-20 06:00:00 TS -8.10000 72.9000 main 1780 1780 O___________O_ jtwc_sh SH051984 -8.10000 72.9000 20 -1 -8.10000 72.9000 TC 20 11 131
1983324S08073 1984 85 SI MM NOT_NAMED 1983-11-20 09:00:00 TS -8.45517 73.3123 main 1800 1796 P___________P_ SH051984 -8.45517 73.3123 20 -1 -8.45517 73.3123 TC 20 10 135
1983324S08073 1984 85 SI MM NOT_NAMED 1983-11-20 12:00:00 TS -8.80000 73.6000 main 1817 1817 O___________O_ jtwc_sh SH051984 -8.80000 73.6000 20 -1 -8.80000 73.6000 TC 20 8 153
1983324S08073 1984 85 SI MM NOT_NAMED 1983-11-20 15:00:00 TS -9.12237 73.6626 main 1843 1843 P___________P_ SH051984 -9.12237 73.6626 22 -1 -9.12237 73.6626 TC 22 6 189
1983324S08073 1984 85 SI MM NOT_NAMED 1983-11-20 18:00:00 TS -9.40000 73.5000 main 1883 1883 O___________O_ jtwc_sh SH051984 -9.40000 73.5000 25 -1 -9.40000 73.5000 TC 25 7 225
1983324S08073 1984 85 SI MM NOT_NAMED 1983-11-20 21:00:00 TS -9.62258 73.1525 main 1917 1917 P___________P_ SH051984 -9.62258 73.1525 25 -1 -9.62258 73.1525 TC 25 9 243
1983324S08073 1984 85 SI MM NOT_NAMED 1983-11-21 00:00:00 TS -9.80000 72.7000 main 1960 1937 O___________O_ jtwc_sh SH051984 -9.80000 72.7000 25 -1 -9.80000 72.7000 TC 25 9 249
1983324S08073 1984 85 SI MM NOT_NAMED 1983-11-21 03:00:00 TS -9.95754 72.2700 main 1931 1889 P___________P_ SH051984 -9.95754 72.2700 27 -1 -9.95754 72.2700 TC 27 8 249
1983324S08073 1984 85 SI MM NOT_NAMED 1983-11-21 06:00:00 TS -10.1000 71.9000 main 1889 1865 O___________O_ jtwc_sh SH051984 -10.1000 71.9000 30 -1 -10.1000 71.9000 TC 30 7 242
1983324S08073 1984 85 SI MM NOT_NAMED 1983-11-21 09:00:00 TS -10.2574 71.6849 main 1858 1834 P___________P_ SH051984 -10.2574 71.6849 30 -1 -10.2574 71.6849 TC 30 5 233
1983324S08073 1984 85 SI MM NOT_NAMED 1983-11-21 12:00:00 TS -10.4000 71.5000 main 1834 1801 O___________O_ jtwc_sh SH051984 -10.4000 71.5000 30 -1 -10.4000 71.5000 TC 30 5 241
1983324S08073 1984 85 SI MM NOT_NAMED 1983-11-21 15:00:00 TS -10.5075 71.2300 main 1801 1768 P___________P_ SH051984 -10.5075 71.2300 30 -1 -10.5075 71.2300 TC 30 6 251
1983324S08073 1984 85 SI MM NOT_NAMED 1983-11-21 18:00:00 TS -10.6000 70.9000 main 1768 1727 O___________O_ jtwc_sh SH051984 -10.6000 70.9000 30 -1 -10.6000 70.9000 TC 30 7 255
1983324S08073 1984 85 SI MM NOT_NAMED 1983-11-21 21:00:00 TS -10.7000 70.5225 main 1727 1686 P___________P_ SH051984 -10.7000 70.5225 30 -1 -10.7000 70.5225 TC 30 8 256
1983324S08073 1984 85 SI MM NOT_NAMED 1983-11-22 00:00:00 TS -10.8000 70.1000 main 1686 1646 O___________O_ jtwc_sh SH051984 -10.8000 70.1000 30 -1 -10.8000 70.1000 TC 30 9 257
1983324S08073 1984 85 SI MM NOT_NAMED 1983-11-22 03:00:00 TS -10.8925 69.6574 main 1646 1605 P___________P_ SH051984 -10.8925 69.6574 32 -1 -10.8925 69.6574 TC 32 8 256
1983324S08073 1984 85 SI MM NOT_NAMED 1983-11-22 06:00:00 TS -11.0000 69.2778 main 1605 1565 O_________O_O_ jtwc_sh SH051984 -11.0000 69.2000 35 0 -11.0000 69.9000 2 -11.0000 69.2000 TC 35 8 254
1983324S08073 1984 85 SI MM NOT_NAMED 1983-11-22 09:00:00 TS -11.1200 68.8502 main 1565 1517 P_________P_P_ SH051984 -11.1349 68.7500 35 0 -11.0603 69.2513 2 -11.1349 68.7500 TC 35 9 254
1983324S08073 1984 85 SI MM NOT_NAMED 1983-11-22 12:00:00 TS -11.2521 68.3859 main 1509 1462 O_________P_O_ jtwc_sh SH051984 -11.3000 68.3000 35 0 -11.1245 68.6151 2 -11.3000 68.3000 TC 35 10 253
1983324S08073 1984 85 SI MM NOT_NAMED 1983-11-22 15:00:00 TS -11.3993 67.8916 main 1462 1407 P_________P_P_ SH051984 -11.5000 67.8350 37 0 -11.1980 68.0047 2 -11.5000 67.8350 TC 37 10 252
1983324S08073 1984 85 SI MM NOT_NAMED 1983-11-22 18:00:00 TS -11.5621 67.4111 main 1407 1367 O_________P_O_ jtwc_sh SH051984 -11.7000 67.4000 40 0 -11.2864 67.4334 2 -11.7000 67.4000 TC 40 9 251
1983324S08073 1984 85 SI MM NOT_NAMED 1983-11-22 21:00:00 TS -11.7033 66.9897 main 1367 1329 P_________P_P_ SH051984 -11.8574 67.0274 40 0 -11.3951 66.9142 2 -11.8574 67.0274 TC 42 8 250
1983324S08073 1984 85 SI MM NOT_NAMED 1983-11-23 00:00:00 TS -11.8433 66.6201 main 1329 1290 O_________P_O_ jtwc_sh SH051984 -12.0000 66.7000 40 0 -11.5298 66.4603 2 -12.0000 66.7000 TC 45 8 247
1983324S08073 1984 85 SI MM NOT_NAMED 1983-11-23 03:00:00 TS -11.9987 66.2848 main 1290 1251 P_________P_P_ SH051984 -12.1500 66.3850 42 0 -11.6962 66.0845 2 -12.1500 66.3850 TC 45 7 242
1983324S08073 1984 85 SI MM NOT_NAMED 1983-11-23 06:00:00 TS -12.1667 66.0000 main 1251 1228 O_________O_O_ jtwc_sh SH051984 -12.3000 66.1000 45 0 -11.9000 65.8000 2 -12.3000 66.1000 TC 45 991 6 236
1983324S08073 1984 85 SI MM NOT_NAMED 1983-11-23 09:00:00 TS -12.3479 65.7655 main 1228 1197 P_________P_P_ SH051984 -12.4500 65.8425 45 0 -12.1438 65.6115 2 -12.4500 65.8425 TC 45 6 229
1983324S08073 1984 85 SI MM NOT_NAMED 1983-11-23 12:00:00 TS -12.5391 65.5634 main 1197 1166 O_________P_O_ jtwc_sh SH051984 -12.6000 65.6000 45 0 -12.4174 65.4901 2 -12.6000 65.6000 TC 45 6 225
1983324S08073 1984 85 SI MM NOT_NAMED 1983-11-23 15:00:00 TS -12.7357 65.3662 main 1166 1134 P_________P_P_ SH051984 -12.7500 65.3500 45 0 -12.7073 65.3987 2 -12.7500 65.3500 TC 45 6 224
1983324S08073 1984 85 SI MM NOT_NAMED 1983-11-23 18:00:00 TS -12.9333 65.1667 main 1134 1103 O_________O_O_ jtwc_sh SH051984 -12.9000 65.1000 45 0 -13.0000 65.3000 2 -12.9000 65.1000 TC 45 6 224
1983324S08073 1984 85 SI MM NOT_NAMED 1983-11-23 21:00:00 TS -13.1380 64.9613 main 1103 1072 P_________P_P_ SH051984 -13.0575 64.8500 45 0 -13.2991 65.1839 2 -13.0575 64.8500 TC 45 6 226
1983324S08073 1984 85 SI MM NOT_NAMED 1983-11-24 00:00:00 TS -13.3315 64.7491 main 1065 1033 O_________P_O_ jtwc_sh SH051984 -13.2000 64.6000 45 0 -13.5945 65.0473 2 -13.2000 64.6000 TC 45 6 230
1983324S08073 1984 85 SI MM NOT_NAMED 1983-11-24 03:00:00 TS -13.4942 64.5306 main 1033 1010 P_________P_P_ SH051984 -13.3074 64.3649 42 0 -13.8677 64.8620 2 -13.3074 64.3649 TC 42 6 237
1983324S08073 1984 85 SI MM NOT_NAMED 1983-11-24 06:00:00 TS -13.6333 64.2667 main 1010 965 O_________O_O_ jtwc_sh SH051984 -13.4000 64.1000 40 0 -14.1000 64.6000 2 -13.4000 64.1000 TC 40 6 245
1983324S08073 1984 85 SI MM NOT_NAMED 1983-11-24 09:00:00 TS -13.7629 63.9284 main 965 928 P_________P_P_ SH051984 -13.4999 63.7800 40 0 -14.2888 64.2252 2 -13.4999 63.7800 TC 40 8 251
1983324S08073 1984 85 SI MM NOT_NAMED 1983-11-24 12:00:00 TS -13.8777 63.5251 main 928 891 O_________P_O_ jtwc_sh SH051984 -13.6000 63.4000 40 0 -14.4330 63.7752 2 -13.6000 63.4000 TC 40 9 256
1983324S08073 1984 85 SI MM NOT_NAMED 1983-11-24 15:00:00 TS -13.9786 63.0625 main 891 849 P_________P_P_ SH051984 -13.7001 62.9500 37 0 -14.5356 63.2876 2 -13.7001 62.9500 TC 37 9 258
1983324S08073 1984 85 SI MM NOT_NAMED 1983-11-24 18:00:00 TS -14.0667 62.6000 main 849 824 O_________O_O_ jtwc_sh SH051984 -13.8000 62.5000 35 0 -14.6000 62.8000 2 -13.8000 62.5000 TC 35 9 259
1983324S08073 1984 85 SI MM NOT_NAMED 1983-11-24 21:00:00 TS -14.1434 62.2040 main 824 796 P_________P_P_ SH051984 -13.8999 62.1350 35 0 -14.6306 62.3420 2 -13.8999 62.1350 TC 35 8 262
1983324S08073 1984 85 SI MM NOT_NAMED 1983-11-25 00:00:00 TS -14.1732 61.8306 main 790 773 O_________P_O_ jtwc_sh SH051984 -14.0000 61.8000 35 0 -14.6351 61.9123 2 -14.0000 61.8000 TC 35 7 265
1983324S08073 1984 85 SI MM NOT_NAMED 1983-11-25 03:00:00 TS -14.2044 61.4543 main 773 752 P_________P_P_ SH051984 -14.1000 61.4425 32 -1 -14.6221 61.5014 2 -14.1000 61.4425 TC 32 7 264
1983324S08073 1984 85 SI MM NOT_NAMED 1983-11-25 06:00:00 TS -14.2444 61.1000 main 752 727 O_________O_O_ jtwc_sh SH051984 -14.2000 61.1000 30 -1 -14.6000 61.1000 1 -14.2000 61.1000 TC 30 7 262
1983324S08073 1984 85 SI MM NOT_NAMED 1983-11-25 09:00:00 TS -14.2925 60.7775 main 727 703 P___________P_ SH051984 -14.2925 60.7775 30 -1 1 -14.2925 60.7775 TC 30 6 255
1983324S08073 1984 85 SI MM NOT_NAMED 1983-11-25 12:00:00 TS -14.4000 60.5000 main 703 684 O___________O_ jtwc_sh SH051984 -14.4000 60.5000 30 -1 1 -14.4000 60.5000 TC 30 5 243
1983324S08073 1984 85 SI MM NOT_NAMED 1983-11-25 15:00:00 TS -14.5400 60.2826 main 684 655 P___________P_ SH051984 -14.5400 60.2826 27 -1 1 -14.5400 60.2826 TC 27 5 232
1983324S08073 1984 85 SI MM NOT_NAMED 1983-11-25 18:00:00 TS -14.7000 60.1000 main 655 O___________O_ jtwc_sh SH051984 -14.7000 60.1000 25 -1 -14.7000 60.1000 TC 25 5 228

About IBTrACS Database

This database is a web-friendly format of International Best Track Archive for Climate Stewardship (IBTrACS), a global best track data archive curated by NOAA dating back to 1842.

Updated: 2021-10-21